Westville, Oklahoma
Current Conditions -  °F | °C
As of 12:35 AM on Wednesday 26 Nov 2014 (Local Time) from KSLG Reporting Station
Clear Clear  
Wind Chill: -4°   Ceiling: Unl
Heat Index: -1°   Visibility: 10mi
Dew Point: -8°   Wind: 6mph
Humidity: 60%   Direction: 130°SE
Pressure: 30.08"   Gusts: NA
Location:  35.99°N, 94.57°W
Report Text: KSLG 260635Z AUTO 13005KT 10SM CLR M01/M08 A3008 RMK AO1
Loading
Personal Weather Stations






























Interactive Weather Map New forecast layout! Learn more

10-Day Weather Forecast

Advertisements
Track Severe Weather on mobile